createdAt,value
2022-08-20T00:02:10.814Z,90.89
2022-08-20T00:04:41.260Z,89.24
2022-08-20T00:07:09.396Z,91.68
2022-08-20T00:09:37.418Z,91.17
2022-08-20T00:12:06.541Z,89.91
2022-08-20T00:14:35.119Z,92.45
2022-08-20T00:17:03.509Z,92.50
2022-08-20T00:19:31.567Z,91.95
2022-08-20T00:22:00.952Z,91.07
2022-08-20T00:24:28.890Z,92.43
2022-08-20T00:26:56.914Z,92.81
2022-08-20T00:29:24.988Z,92.78
2022-08-20T00:31:52.954Z,93.44
2022-08-20T00:34:22.416Z,93.75
2022-08-20T00:36:50.478Z,93.59
2022-08-20T00:39:19.724Z,92.86
2022-08-20T00:41:47.656Z,93.15
2022-08-20T00:44:18.547Z,92.54
2022-08-20T00:46:47.713Z,92.97
2022-08-20T00:49:18.532Z,94.38
2022-08-20T00:51:51.537Z,94.73
2022-08-20T00:54:26.090Z,94.30
2022-08-20T00:56:58.935Z,94.18
2022-08-20T00:59:30.017Z,93.31
2022-08-20T01:01:58.657Z,93.63
2022-08-20T01:04:28.404Z,93.03
2022-08-20T01:06:56.592Z,93.71
2022-08-20T01:09:49.628Z,92.07
2022-08-20T01:12:16.071Z,92.32
2022-08-20T01:14:46.592Z,90.95
2022-08-20T01:17:20.114Z,90.33
2022-08-20T01:19:53.588Z,91.17
2022-08-20T01:22:47.242Z,90.49
2022-08-20T01:25:26.478Z,90.30
2022-08-20T01:27:57.317Z,90.99
2022-08-20T01:30:29.925Z,89.18
2022-08-20T01:32:57.983Z,90.87
2022-08-20T01:35:26.517Z,90.50
2022-08-20T01:37:54.631Z,90.87
2022-08-20T01:40:36.635Z,91.58
2022-08-20T01:43:06.488Z,93.56
2022-08-20T01:45:36.366Z,92.23
2022-08-20T01:48:06.163Z,94.53
2022-08-20T01:50:37.127Z,95.01
2022-08-20T01:53:11.084Z,95.70
2022-08-20T01:55:39.485Z,94.69
2022-08-20T01:58:08.808Z,98.53
2022-08-20T02:00:37.425Z,96.90
2022-08-20T02:03:07.674Z,98.76
2022-08-20T02:05:36.004Z,98.18
2022-08-20T02:08:05.427Z,99.24
2022-08-20T02:10:34.225Z,100.00
2022-08-20T02:13:02.521Z,100.00
2022-08-20T02:15:37.256Z,99.05
2022-08-20T02:18:10.241Z,100.00
2022-08-20T02:20:38.813Z,98.29
2022-08-20T02:23:08.753Z,100.00
2022-08-20T02:25:40.146Z,100.00
2022-08-20T02:28:12.737Z,100.00
2022-08-20T02:30:46.941Z,100.00
2022-08-20T02:33:17.217Z,98.63
2022-08-20T02:35:47.948Z,97.81
2022-08-20T02:38:16.725Z,96.58
2022-08-20T02:40:45.880Z,96.87
2022-08-20T02:43:14.493Z,97.67
2022-08-20T02:45:44.674Z,95.83
2022-08-20T02:48:20.639Z,95.88
2022-08-20T02:50:54.350Z,95.76
2022-08-20T02:53:22.889Z,95.12
2022-08-20T02:55:51.445Z,98.34
2022-08-20T02:58:20.692Z,100.00
2022-08-20T03:00:50.735Z,100.00
2022-08-20T03:03:22.558Z,100.00
2022-08-20T03:05:54.510Z,100.00
2022-08-20T03:08:22.849Z,100.00
2022-08-20T03:10:51.593Z,100.00
2022-08-20T03:13:21.421Z,100.00
2022-08-20T03:15:57.909Z,100.00
2022-08-20T03:18:29.745Z,100.00
2022-08-20T03:20:57.838Z,100.00
2022-08-20T03:23:25.765Z,100.00
2022-08-20T03:25:53.719Z,100.00
2022-08-20T03:28:21.641Z,100.00
2022-08-20T03:30:51.535Z,100.00
2022-08-20T03:33:20.235Z,100.00
2022-08-20T03:35:49.197Z,100.00
2022-08-20T03:38:20.741Z,100.00
2022-08-20T03:41:00.774Z,100.00
2022-08-20T03:43:29.108Z,100.00
2022-08-20T03:45:58.401Z,100.00
2022-08-20T03:48:26.556Z,100.00
2022-08-20T03:50:55.774Z,100.00
2022-08-20T03:53:23.951Z,100.00
2022-08-20T03:55:58.251Z,100.00
2022-08-20T03:58:34.941Z,100.00
2022-08-20T04:01:09.013Z,100.00
2022-08-20T04:03:58.623Z,100.00
2022-08-20T04:06:29.210Z,100.00
2022-08-20T04:08:57.675Z,100.00
2022-08-20T04:11:25.665Z,100.00
2022-08-20T04:13:53.663Z,100.00
2022-08-20T04:16:23.744Z,100.00
2022-08-20T04:19:02.041Z,100.00
2022-08-20T04:21:32.985Z,100.00
2022-08-20T04:24:02.252Z,100.00
2022-08-20T04:26:30.382Z,100.00
2022-08-20T04:28:58.329Z,100.00
2022-08-20T04:31:32.683Z,100.00
2022-08-20T04:34:01.708Z,100.00
2022-08-20T04:36:29.797Z,100.00
2022-08-20T04:38:57.814Z,100.00
2022-08-20T04:41:25.786Z,100.00
2022-08-20T04:43:54.946Z,100.00
2022-08-20T04:46:27.617Z,100.00
2022-08-20T04:48:57.580Z,100.00
2022-08-20T04:51:26.826Z,100.00
2022-08-20T04:53:56.195Z,100.00
2022-08-20T04:56:26.448Z,100.00
2022-08-20T04:58:55.978Z,100.00
2022-08-20T05:01:26.016Z,100.00
2022-08-20T05:03:57.150Z,100.00
2022-08-20T05:06:28.588Z,100.00
2022-08-20T05:08:59.035Z,100.00
2022-08-20T05:11:35.677Z,100.00
2022-08-20T05:14:08.577Z,100.00
2022-08-20T05:16:39.037Z,100.00
2022-08-20T05:19:10.869Z,100.00
2022-08-20T05:21:39.453Z,100.00
2022-08-20T05:24:08.465Z,100.00
2022-08-20T05:26:36.713Z,100.00
2022-08-20T05:29:06.781Z,100.00
2022-08-20T05:31:35.857Z,100.00
2022-08-20T05:34:09.554Z,100.00
2022-08-20T05:36:41.068Z,100.00
2022-08-20T05:39:10.048Z,100.00
2022-08-20T05:41:38.831Z,100.00
2022-08-20T05:44:10.615Z,100.00
2022-08-20T05:46:40.473Z,100.00
2022-08-20T05:49:08.779Z,100.00
2022-08-20T05:51:37.447Z,100.00
2022-08-20T05:54:07.191Z,100.00
2022-08-20T05:56:36.003Z,98.97
2022-08-20T05:59:05.837Z,99.43
2022-08-20T06:01:35.034Z,100.00
2022-08-20T06:04:21.024Z,100.00
2022-08-20T06:06:51.130Z,100.00
2022-08-20T06:09:30.952Z,100.00
2022-08-20T06:12:00.881Z,100.00
2022-08-20T06:14:28.840Z,100.00
2022-08-20T06:16:57.706Z,100.00
2022-08-20T06:19:27.284Z,100.00
2022-08-20T06:22:00.551Z,98.59
2022-08-20T06:24:30.544Z,100.00
2022-08-20T06:26:59.027Z,99.57
2022-08-20T06:29:27.524Z,99.59
2022-08-20T06:31:55.988Z,100.00
2022-08-20T06:34:28.431Z,97.77
2022-08-20T06:36:59.608Z,98.37
2022-08-20T06:39:31.311Z,97.83
2022-08-20T06:41:59.641Z,98.23
2022-08-20T06:44:28.522Z,98.75
2022-08-20T06:47:00.975Z,99.06
2022-08-20T06:49:29.023Z,98.81
2022-08-20T06:52:03.764Z,97.71
2022-08-20T06:54:34.308Z,99.02
2022-08-20T06:57:02.447Z,98.77
2022-08-20T06:59:31.149Z,97.68
2022-08-20T07:01:59.084Z,100.00
2022-08-20T07:04:28.148Z,98.77
2022-08-20T07:06:57.671Z,97.82
2022-08-20T07:09:26.662Z,97.96
2022-08-20T07:11:56.144Z,99.54
2022-08-20T07:14:24.230Z,96.58
2022-08-20T07:16:52.126Z,100.00
2022-08-20T07:19:20.066Z,97.69
2022-08-20T07:21:50.642Z,97.80
2022-08-20T07:24:18.569Z,97.15
2022-08-20T07:26:46.701Z,96.85
2022-08-20T07:29:15.977Z,97.29
2022-08-20T07:32:06.901Z,98.31
2022-08-20T07:34:37.768Z,98.35
2022-08-20T07:37:11.579Z,97.89
2022-08-20T07:39:39.551Z,96.63
2022-08-20T07:42:07.793Z,96.19
2022-08-20T07:44:38.460Z,97.92
2022-08-20T07:47:06.802Z,97.50
2022-08-20T07:49:39.281Z,97.36
2022-08-20T07:52:07.879Z,97.35
2022-08-20T07:54:38.054Z,98.24
2022-08-20T07:57:06.450Z,96.81
2022-08-20T07:59:34.502Z,98.90
2022-08-20T08:02:04.241Z,98.17
2022-08-20T08:04:32.169Z,97.82
2022-08-20T08:07:00.571Z,97.21
2022-08-20T08:09:29.484Z,99.06
2022-08-20T08:11:59.188Z,99.17
2022-08-20T08:14:30.033Z,99.39
2022-08-20T08:17:01.384Z,98.63
2022-08-20T08:19:38.692Z,98.53
2022-08-20T08:22:11.471Z,99.63
2022-08-20T08:24:40.041Z,99.63
2022-08-20T08:27:08.919Z,98.55
2022-08-20T08:29:37.123Z,98.32
2022-08-20T08:32:06.713Z,97.95
2022-08-20T08:34:37.573Z,98.22
2022-08-20T08:37:06.280Z,97.73
2022-08-20T08:39:35.177Z,97.17
2022-08-20T08:42:05.163Z,98.82
2022-08-20T08:44:40.621Z,98.68
2022-08-20T08:47:18.293Z,98.79
2022-08-20T08:49:48.903Z,97.33
2022-08-20T08:52:21.065Z,99.06
2022-08-20T08:54:52.695Z,96.54
2022-08-20T08:57:21.108Z,97.85
2022-08-20T09:00:04.137Z,94.02
2022-08-20T09:02:36.299Z,93.77
2022-08-20T09:05:14.837Z,96.67
2022-08-20T09:07:46.850Z,95.89
2022-08-20T09:10:15.213Z,94.32
2022-08-20T09:12:47.614Z,94.09
2022-08-20T09:15:16.641Z,94.55
2022-08-20T09:17:44.515Z,94.91
2022-08-20T09:20:14.197Z,94.31
2022-08-20T09:22:42.163Z,95.97
2022-08-20T09:25:10.677Z,93.51
2022-08-20T09:27:38.857Z,94.45
2022-08-20T09:30:11.904Z,95.63
2022-08-20T09:32:39.918Z,91.63
2022-08-20T09:35:09.542Z,92.12
2022-08-20T09:37:39.083Z,89.77
2022-08-20T09:40:09.006Z,91.49
2022-08-20T09:42:41.699Z,91.07
2022-08-20T09:45:11.532Z,89.00
2022-08-20T09:47:56.595Z,89.70
2022-08-20T09:50:25.328Z,89.09
2022-08-20T09:52:56.705Z,89.46
2022-08-20T09:55:31.337Z,87.22
2022-08-20T09:57:59.857Z,85.89
2022-08-20T10:00:28.107Z,86.77
2022-08-20T10:02:56.173Z,88.47
2022-08-20T10:05:24.264Z,86.69
2022-08-20T10:07:52.380Z,86.87
2022-08-20T10:10:21.781Z,85.50
2022-08-20T10:12:54.591Z,86.14
2022-08-20T10:15:22.686Z,83.60
2022-08-20T10:17:50.709Z,84.39
2022-08-20T10:20:20.385Z,84.21
2022-08-20T10:22:48.412Z,83.86
2022-08-20T10:25:17.801Z,82.04
2022-08-20T10:27:47.202Z,83.18
2022-08-20T10:30:15.374Z,80.12
2022-08-20T10:32:43.772Z,81.93
2022-08-20T10:35:11.709Z,79.84
2022-08-20T10:37:39.638Z,80.81
2022-08-20T10:40:08.853Z,77.28
2022-08-20T10:42:41.824Z,78.68
2022-08-20T10:45:13.608Z,78.14
2022-08-20T10:47:42.393Z,79.01
2022-08-20T10:50:14.362Z,80.63
2022-08-20T10:52:42.526Z,77.44
2022-08-20T10:55:11.272Z,77.20
2022-08-20T10:57:41.382Z,76.56
2022-08-20T11:00:11.512Z,72.55
2022-08-20T11:02:40.945Z,74.23
2022-08-20T11:05:09.549Z,70.32
2022-08-20T11:07:50.531Z,72.35
2022-08-20T11:10:25.680Z,70.21
2022-08-20T11:12:53.815Z,75.04
2022-08-20T11:15:21.804Z,74.14
2022-08-20T11:17:51.189Z,74.05
2022-08-20T11:20:21.274Z,73.29
2022-08-20T11:22:49.206Z,73.17
2022-08-20T11:25:17.491Z,71.53
2022-08-20T11:27:48.323Z,72.27
2022-08-20T11:30:20.587Z,71.18
2022-08-20T11:32:48.594Z,72.18
2022-08-20T11:35:41.677Z,73.11
2022-08-20T11:38:06.743Z,71.14
2022-08-20T11:40:34.697Z,71.29
2022-08-20T11:43:18.503Z,71.36
2022-08-20T11:45:48.945Z,72.08
2022-08-20T11:48:16.892Z,70.50
2022-08-20T11:50:46.737Z,69.65
2022-08-20T11:53:14.911Z,69.11
2022-08-20T11:55:43.496Z,71.21
2022-08-20T11:58:12.393Z,70.22
2022-08-20T12:00:40.735Z,69.51
2022-08-20T12:03:10.225Z,68.04
2022-08-20T12:05:41.287Z,67.69
2022-08-20T12:08:27.615Z,70.31
2022-08-20T12:10:58.480Z,67.73
2022-08-20T12:13:30.977Z,67.07
2022-08-20T12:16:15.091Z,66.82
2022-08-20T12:18:43.097Z,67.56
2022-08-20T12:21:11.086Z,66.09
2022-08-20T12:23:40.437Z,67.26
2022-08-20T12:26:08.521Z,65.78
2022-08-20T12:28:36.527Z,64.71
2022-08-20T12:31:05.028Z,65.25
2022-08-20T12:33:32.966Z,63.84
2022-08-20T12:36:00.932Z,64.10
2022-08-20T12:38:28.933Z,65.51
2022-08-20T12:40:58.235Z,65.91
2022-08-20T12:43:26.168Z,67.08
2022-08-20T12:45:54.078Z,66.25
2022-08-20T12:48:22.019Z,66.53
2022-08-20T12:50:52.669Z,67.20
2022-08-20T12:53:20.738Z,66.62
2022-08-20T12:55:48.804Z,66.81
2022-08-20T12:58:18.176Z,66.80
2022-08-20T13:00:50.959Z,67.62
2022-08-20T13:03:20.868Z,66.54
2022-08-20T13:05:49.646Z,65.02
2022-08-20T13:08:19.184Z,68.54
2022-08-20T13:10:47.383Z,67.92
2022-08-20T13:13:17.589Z,69.63
2022-08-20T13:15:51.557Z,69.75
2022-08-20T13:18:20.751Z,68.26
2022-08-20T13:20:48.929Z,69.26
2022-08-20T13:23:17.142Z,70.36
2022-08-20T13:25:45.144Z,70.20
2022-08-20T13:28:12.984Z,72.26
2022-08-20T13:30:41.526Z,70.85
2022-08-20T13:33:11.068Z,70.41
2022-08-20T13:35:39.107Z,70.33
2022-08-20T13:38:07.147Z,71.35
2022-08-20T13:40:35.214Z,73.42
2022-08-20T13:43:06.694Z,72.85
2022-08-20T13:45:35.992Z,74.29
2022-08-20T13:48:04.673Z,76.70
2022-08-20T13:50:37.518Z,76.37
2022-08-20T13:53:05.702Z,78.43
2022-08-20T13:55:35.300Z,79.05
2022-08-20T13:58:08.052Z,79.65
2022-08-20T14:00:37.350Z,81.05
2022-08-20T14:03:08.137Z,82.62
2022-08-20T14:05:38.784Z,83.38
2022-08-20T14:08:11.096Z,83.27
2022-08-20T14:10:39.732Z,82.92
2022-08-20T14:13:15.116Z,84.76
2022-08-20T14:15:43.987Z,83.71
2022-08-20T14:18:12.056Z,84.30
2022-08-20T14:20:42.413Z,85.51
2022-08-20T14:23:13.626Z,85.56
2022-08-20T14:25:41.855Z,84.53
2022-08-20T14:28:11.688Z,86.82
2022-08-20T14:30:40.133Z,86.47
2022-08-20T14:33:08.077Z,85.65
2022-08-20T14:35:36.717Z,89.40
2022-08-20T14:38:06.053Z,87.65
2022-08-20T14:40:35.128Z,88.17
2022-08-20T14:43:04.120Z,88.38
2022-08-20T14:45:32.369Z,88.07
2022-08-20T14:48:00.363Z,88.84
2022-08-20T14:50:31.004Z,89.81
2022-08-20T14:52:59.817Z,89.76
2022-08-20T14:55:30.629Z,89.66
2022-08-20T14:57:58.644Z,88.23
2022-08-20T15:00:29.043Z,88.16
2022-08-20T15:02:57.687Z,88.59
2022-08-20T15:05:26.127Z,86.16
2022-08-20T15:07:54.983Z,86.36
2022-08-20T15:10:27.293Z,87.40
2022-08-20T15:12:56.900Z,88.25
2022-08-20T15:15:26.321Z,86.09
2022-08-20T15:17:56.674Z,88.33
2022-08-20T15:20:27.547Z,88.50
2022-08-20T15:22:56.149Z,88.70
2022-08-20T15:25:36.651Z,86.66
2022-08-20T15:28:09.468Z,86.95
2022-08-20T15:30:39.847Z,88.68
2022-08-20T15:33:08.215Z,87.67
2022-08-20T15:35:36.442Z,88.70
2022-08-20T15:38:04.285Z,85.20
2022-08-20T15:40:33.490Z,83.61
2022-08-20T15:43:03.461Z,83.34
2022-08-20T15:45:33.673Z,84.79
2022-08-20T15:48:08.876Z,87.48
2022-08-20T15:51:03.952Z,85.99
2022-08-20T15:53:37.109Z,86.05
2022-08-20T15:56:14.278Z,86.44
2022-08-20T15:58:55.048Z,84.88
2022-08-20T16:01:44.654Z,85.44
2022-08-20T16:04:45.046Z,89.19
2022-08-20T16:07:18.266Z,91.18
2022-08-20T16:09:52.447Z,90.15
2022-08-20T16:12:29.935Z,90.66
2022-08-20T16:15:02.227Z,89.74
2022-08-20T16:17:38.169Z,89.16
2022-08-20T16:20:11.181Z,90.55
2022-08-20T16:22:44.097Z,90.60
2022-08-20T16:25:13.729Z,89.65
2022-08-20T16:27:56.054Z,87.77
2022-08-20T16:30:35.785Z,92.28
2022-08-20T16:33:16.362Z,88.59
2022-08-20T16:35:51.796Z,91.15
2022-08-20T16:38:24.877Z,90.71
2022-08-20T16:40:57.470Z,87.45
2022-08-20T16:43:32.605Z,86.23
2022-08-20T16:46:04.206Z,86.89
2022-08-20T16:48:39.788Z,85.91
2022-08-20T16:51:15.067Z,88.23
2022-08-20T16:53:42.964Z,90.96
2022-08-20T16:56:10.915Z,90.98
2022-08-20T16:58:38.837Z,89.68
2022-08-20T17:01:13.250Z,91.18
2022-08-20T17:03:50.347Z,91.38
2022-08-20T17:06:26.701Z,91.80
2022-08-20T17:08:55.122Z,90.11
2022-08-20T17:11:26.936Z,89.22
2022-08-20T17:14:14.261Z,88.25
2022-08-20T17:16:44.773Z,88.64
2022-08-20T17:19:19.011Z,88.74
2022-08-20T17:21:50.569Z,88.22
2022-08-20T17:24:26.053Z,90.35
2022-08-20T17:26:59.989Z,91.46
2022-08-20T17:29:30.775Z,90.81
2022-08-20T17:32:01.269Z,90.43
2022-08-20T17:34:33.936Z,89.41
2022-08-20T17:37:08.318Z,90.35
2022-08-20T17:39:36.337Z,89.90
2022-08-20T17:42:08.080Z,89.97
2022-08-20T17:44:38.408Z,88.57
2022-08-20T17:47:12.765Z,90.66
2022-08-20T17:49:57.310Z,89.88
2022-08-20T17:52:45.587Z,89.47
2022-08-20T17:55:14.044Z,90.75
2022-08-20T17:57:45.203Z,91.71
2022-08-20T18:00:23.195Z,88.04
2022-08-20T18:02:53.822Z,88.41
2022-08-20T18:05:23.342Z,86.75
2022-08-20T18:08:08.585Z,87.34
2022-08-20T18:10:51.583Z,88.02
2022-08-20T18:13:25.907Z,87.87
2022-08-20T18:15:57.980Z,86.52
2022-08-20T18:18:32.242Z,84.79
2022-08-20T18:21:44.543Z,87.67
2022-08-20T18:24:17.052Z,83.58
2022-08-20T18:26:47.935Z,86.00
2022-08-20T18:29:19.466Z,86.07
2022-08-20T18:31:50.738Z,83.11
2022-08-20T18:34:20.573Z,84.68
2022-08-20T18:37:04.307Z,83.25
2022-08-20T18:39:35.047Z,82.08
2022-08-20T18:42:05.976Z,81.11
2022-08-20T18:44:41.681Z,79.36
2022-08-20T18:47:21.879Z,80.87
2022-08-20T18:50:01.698Z,81.39
2022-08-20T18:52:34.203Z,77.98
2022-08-20T18:55:04.842Z,79.08
2022-08-20T18:57:40.799Z,80.68
2022-08-20T19:00:13.651Z,81.06
2022-08-20T19:02:56.016Z,81.68
2022-08-20T19:05:31.557Z,81.66
2022-08-20T19:08:03.722Z,81.15
2022-08-20T19:10:45.147Z,79.60
2022-08-20T19:13:48.647Z,78.70
2022-08-20T19:16:21.039Z,80.01
2022-08-20T19:18:51.894Z,82.58
2022-08-20T19:21:26.012Z,81.18
2022-08-20T19:24:02.481Z,81.39
2022-08-20T19:26:32.941Z,81.64
2022-08-20T19:29:03.673Z,81.72
2022-08-20T19:31:33.966Z,81.06
2022-08-20T19:34:20.153Z,84.00
2022-08-20T19:36:56.439Z,84.11
2022-08-20T19:39:28.260Z,84.38
2022-08-20T19:41:58.884Z,84.13
2022-08-20T19:44:33.560Z,84.05
2022-08-20T19:47:03.049Z,83.86
2022-08-20T19:49:42.867Z,85.26
2022-08-20T19:52:28.769Z,87.04
2022-08-20T19:55:03.568Z,86.03
2022-08-20T19:57:32.477Z,84.18
2022-08-20T20:00:05.250Z,83.61
2022-08-20T20:02:34.417Z,83.26
2022-08-20T20:05:06.295Z,84.61
2022-08-20T20:07:39.610Z,83.41
2022-08-20T20:10:24.511Z,83.39
2022-08-20T20:12:52.553Z,85.27
2022-08-20T20:15:20.782Z,84.68
2022-08-20T20:17:49.386Z,83.82
2022-08-20T20:20:22.191Z,83.18
2022-08-20T20:22:52.765Z,81.85
2022-08-20T20:25:25.134Z,82.22
2022-08-20T20:27:57.101Z,85.48
2022-08-20T20:30:29.677Z,83.61
2022-08-20T20:33:00.409Z,83.00
2022-08-20T20:35:31.541Z,82.72
2022-08-20T20:38:03.161Z,84.46
2022-08-20T20:40:36.166Z,84.55
2022-08-20T20:43:07.714Z,85.08
2022-08-20T20:45:38.524Z,83.81
2022-08-20T20:48:19.782Z,82.96
2022-08-20T20:50:49.232Z,83.38
2022-08-20T20:53:47.228Z,85.37
2022-08-20T20:56:29.546Z,85.00
2022-08-20T20:59:02.392Z,84.35
2022-08-20T21:01:47.892Z,85.93
2022-08-20T21:04:17.946Z,85.31
2022-08-20T21:06:45.968Z,85.11
2022-08-20T21:09:14.580Z,83.68
2022-08-20T21:11:43.936Z,86.14
2022-08-20T21:14:11.969Z,84.70
2022-08-20T21:16:40.202Z,84.68
2022-08-20T21:19:09.941Z,84.43
2022-08-20T21:21:38.796Z,84.87
2022-08-20T21:24:07.732Z,84.55
2022-08-20T21:26:36.391Z,83.65
2022-08-20T21:29:06.718Z,84.05
2022-08-20T21:31:37.306Z,83.71
2022-08-20T21:34:05.273Z,84.10
2022-08-20T21:36:33.383Z,84.70
2022-08-20T21:39:01.285Z,85.14
2022-08-20T21:41:30.394Z,83.06
2022-08-20T21:43:58.613Z,83.40
2022-08-20T21:46:28.746Z,83.62
2022-08-20T21:48:57.361Z,86.24
2022-08-20T21:51:25.309Z,85.50
2022-08-20T21:53:53.252Z,85.63
2022-08-20T21:56:21.365Z,85.64
2022-08-20T21:58:51.769Z,85.29
2022-08-20T22:01:23.759Z,86.33
2022-08-20T22:03:53.139Z,85.39
2022-08-20T22:06:21.268Z,84.99
2022-08-20T22:08:49.312Z,87.90
2022-08-20T22:11:17.742Z,87.68
2022-08-20T22:13:47.534Z,87.77
2022-08-20T22:16:20.062Z,87.37
2022-08-20T22:18:49.302Z,85.65
2022-08-20T22:21:22.327Z,87.38
2022-08-20T22:23:51.466Z,86.44
2022-08-20T22:26:20.329Z,85.69
2022-08-20T22:28:51.213Z,85.96
2022-08-20T22:31:22.201Z,84.88
2022-08-20T22:33:50.135Z,85.75
2022-08-20T22:36:19.851Z,85.08
2022-08-20T22:38:52.731Z,85.52
2022-08-20T22:41:23.141Z,86.30
2022-08-20T22:43:56.820Z,86.40
2022-08-20T22:46:27.698Z,86.22
2022-08-20T22:48:56.646Z,86.90
2022-08-20T22:51:34.869Z,86.60
2022-08-20T22:54:05.417Z,85.99
2022-08-20T22:56:33.446Z,86.21
2022-08-20T22:59:03.213Z,87.41
2022-08-20T23:01:31.499Z,84.89
2022-08-20T23:04:05.185Z,86.80
2022-08-20T23:06:34.512Z,87.38
2022-08-20T23:09:02.627Z,86.99
2022-08-20T23:11:30.764Z,86.03
2022-08-20T23:13:58.699Z,86.20
2022-08-20T23:16:26.812Z,84.38
2022-08-20T23:18:54.806Z,82.71
2022-08-20T23:21:23.176Z,81.91
2022-08-20T23:23:52.508Z,81.67
2022-08-20T23:26:22.674Z,81.97
2022-08-20T23:28:50.946Z,82.53
2022-08-20T23:31:19.555Z,83.71
2022-08-20T23:33:47.675Z,84.88
2022-08-20T23:36:17.705Z,84.70
2022-08-20T23:38:45.639Z,84.70
2022-08-20T23:41:14.959Z,85.13
2022-08-20T23:43:44.076Z,83.13
2022-08-20T23:46:13.045Z,83.95
2022-08-20T23:48:41.142Z,85.21
2022-08-20T23:51:09.183Z,86.00
2022-08-20T23:53:38.741Z,85.16
2022-08-20T23:56:07.085Z,83.32
2022-08-20T23:58:37.074Z,83.68
